Time;durP1;ratioP1;P1;durP2;ratioP2;P2;SDS_P1;SDS_P2;PMS_P1;PMS_P2;Temp;Humidity;BMP_temperature;BMP_pressure;BME280_temperature;BME280_humidity;BME280_pressure;Samples;Min_cycle;Max_cycle;Signal;HPM_P1;HPM_P2
2021/08/07 00:00:48;;;;;;;;;;;;;;;;;;5069568;28;19925;-87
2021/08/07 00:03:18;;;;;;;;;;;;;;;;;;5072159;28;19939;-87
2021/08/07 00:05:47;;;;;;;;;;;;;;;;;;5029588;28;19940;-84
2021/08/07 00:08:15;;;;;;;;;;;;;;;;;;5022560;28;19929;-83
2021/08/07 00:10:44;;;;;;;;;;;;;;;;;;5015840;28;19925;-87
2021/08/07 00:13:13;;;;;;;;;;;;;;;;;;5050949;28;19925;-84
2021/08/07 00:15:41;;;;;;;;;;;;;;;;;;5066194;28;20362;-85
2021/08/07 00:18:09;;;;;;;;;;;;;;;;;;5056658;28;20200;-86
2021/08/07 00:20:37;;;;;;;;;;;;;;;;;;5044701;28;19925;-87
2021/08/07 00:23:05;;;;;;;;;;;;;;;;;;5051637;28;19943;-83
2021/08/07 00:25:34;;;;;;;;;;;;;;;;;;5033336;28;20291;-87
2021/08/07 00:28:03;;;;;;;;;;;;;;;;;;5044269;28;19948;-86
2021/08/07 00:30:31;;;;;;;;;;;;;;;;;;5041299;28;20405;-87
2021/08/07 00:33:00;;;;;;;;;;;;;;;;;;5015518;28;20005;-88
2021/08/07 00:35:30;;;;;;;;;;;;;;;;;;5011460;28;19948;-88
2021/08/07 00:37:59;;;;;;;;;;;;;;;;;;5062101;28;19925;-88
2021/08/07 00:40:28;;;;;;;;;;;;;;;;;;5044983;28;19936;-87
2021/08/07 00:43:00;;;;;;;;;;;;;;;;;;5011446;28;20299;-88
2021/08/07 00:45:40;;;;;;;;;;;;;;;;;;5023993;28;20296;-84
2021/08/07 00:48:13;;;;;;;;;;;;;;;;;;5025085;28;19932;-88
2021/08/07 00:50:49;;;;;;;;;;;;;;;;;;5041171;28;19925;-87
2021/08/07 00:53:22;;;;;;;;;;;;;;;;;;5028893;28;20409;-84
2021/08/07 00:55:53;;;;;;;;;;;;;;;;;;5027856;28;20302;-88
2021/08/07 00:58:24;;;;;;;;;;;;;;;;;;4982688;28;19940;-84
2021/08/07 01:00:56;;;;;;;;;;;;;;;;;;5039753;28;19925;-81
2021/08/07 01:03:32;;;;;;;;;;;;;;;;;;5007303;28;19924;-89
2021/08/07 01:06:03;;;;;;;;;;;;;;;;;;5020258;28;19925;-84
2021/08/07 01:08:34;;;;;;;;;;;;;;;;;;5043894;28;19926;-83
2021/08/07 01:11:07;;;;;;;;;;;;;;;;;;5021826;28;19926;-87
2021/08/07 01:13:36;;;;;;;;;;;;;;;;;;5021909;28;19932;-87
2021/08/07 01:16:08;;;;;;;;;;;;;;;;;;5028120;28;19937;-86
2021/08/07 01:18:50;;;;;;;;;;;;;;;;;;5077418;27;20398;-85
2021/08/07 01:21:21;;;;;;;;;;;;;;;;;;5004102;28;19925;-87
2021/08/07 01:23:58;;;;;;;;;;;;;;;;;;5014764;28;19953;-86
2021/08/07 01:26:29;;;;;;;;;;;;;;;;;;5018196;28;19925;-86
2021/08/07 01:29:15;;;;;;;;;;;;;;;;;;5018397;28;19947;-84
2021/08/07 01:31:50;;;;;;;;;;;;;;;;;;5010535;28;19934;-82
2021/08/07 01:34:22;;;;;;;;;;;;;;;;;;5001600;28;19929;-87
2021/08/07 01:36:50;;;;;;;;;;;;;;;;;;5028432;28;19925;-88
2021/08/07 01:39:29;;;;;;;;;;;;;;;;;;5007525;28;19925;-87
2021/08/07 01:42:00;;;;;;;;;;;;;;;;;;5013968;28;19925;-85
2021/08/07 01:44:30;;;;;;;;;;;;;;;;;;4999186;28;20399;-85
2021/08/07 01:46:59;;;;;;;;;;;;;;;;;;5017072;28;19932;-87
2021/08/07 01:49:35;;;;;;;;;;;;;;;;;;5001191;28;19932;-86
2021/08/07 01:52:07;;;;;;;;;;;;;;;;;;5017027;28;19925;-87
2021/08/07 01:54:50;;;;;;;;;;;;;;;;;;5004184;28;19937;-87
2021/08/07 01:57:20;;;;;;;;;;;;;;;;;;5023093;28;19925;-85
2021/08/07 01:59:50;;;;;;;;;;;;;;;;;;5013445;28;19930;-85
2021/08/07 02:02:18;;;;;;;;;;;;;;;;;;5003400;28;19941;-84
2021/08/07 02:04:50;;;;;;;;;;;;;;;;;;5016943;28;19925;-87
2021/08/07 02:07:23;;;;;;;;;;;;;;;;;;5000963;28;19934;-88
2021/08/07 02:09:58;;;;;;;;;;;;;;;;;;5039754;28;19929;-87
2021/08/07 02:12:28;;;;;;;;;;;;;;;;;;5012265;28;19926;-88
2021/08/07 02:15:06;;;;;;;;;;;;;;;;;;5016009;28;19944;-88
2021/08/07 02:17:40;;;;;;;;;;;;;;;;;;5032444;28;19925;-88
2021/08/07 02:20:09;;;;;;;;;;;;;;;;;;5003514;28;20430;-86
2021/08/07 02:22:37;;;;;;;;;;;;;;;;;;5015617;28;19932;-87
2021/08/07 02:25:06;;;;;;;;;;;;;;;;;;5013205;28;19925;-87
2021/08/07 02:27:50;;;;;;;;;;;;;;;;;;5013182;28;19926;-89
2021/08/07 02:30:21;;;;;;;;;;;;;;;;;;4984075;28;19933;-89
2021/08/07 02:32:52;;;;;;;;;;;;;;;;;;4999702;28;19929;-88
2021/08/07 02:35:21;;;;;;;;;;;;;;;;;;4987037;28;20356;-88
2021/08/07 02:37:52;;;;;;;;;;;;;;;;;;4989876;28;19925;-86
2021/08/07 02:40:22;;;;;;;;;;;;;;;;;;5023613;28;19925;-88
2021/08/07 02:42:55;;;;;;;;;;;;;;;;;;4997324;28;19933;-84
2021/08/07 02:45:25;;;;;;;;;;;;;;;;;;4999147;28;19930;-86
2021/08/07 02:47:54;;;;;;;;;;;;;;;;;;4998820;28;19940;-84
2021/08/07 02:50:24;;;;;;;;;;;;;;;;;;4994699;28;19940;-85
2021/08/07 02:52:54;;;;;;;;;;;;;;;;;;4999686;28;19947;-87
2021/08/07 02:55:24;;;;;;;;;;;;;;;;;;4997138;28;19933;-83
2021/08/07 02:58:02;;;;;;;;;;;;;;;;;;4985955;28;20384;-84
2021/08/07 03:00:36;;;;;;;;;;;;;;;;;;4993512;28;19929;-84
2021/08/07 03:03:05;;;;;;;;;;;;;;;;;;4997401;28;19926;-87
2021/08/07 03:05:34;;;;;;;;;;;;;;;;;;5009630;28;19934;-85
2021/08/07 03:08:04;;;;;;;;;;;;;;;;;;5016135;28;19933;-87
2021/08/07 03:10:35;;;;;;;;;;;;;;;;;;4984257;28;19929;-87
2021/08/07 03:13:05;;;;;;;;;;;;;;;;;;4995759;28;19925;-88
2021/08/07 03:15:35;;;;;;;;;;;;;;;;;;4968414;28;19930;-88
2021/08/07 03:18:05;;;;;;;;;;;;;;;;;;4973150;28;19936;-88
2021/08/07 03:20:36;;;;;;;;;;;;;;;;;;4990210;28;19932;-87
2021/08/07 03:23:09;;;;;;;;;;;;;;;;;;4998479;28;19926;-88
2021/08/07 03:25:44;;;;;;;;;;;;;;;;;;4980691;28;20064;-89
2021/08/07 03:28:17;;;;;;;;;;;;;;;;;;4979536;28;19934;-88
2021/08/07 03:30:47;;;;;;;;;;;;;;;;;;4980243;28;19933;-86
2021/08/07 03:33:16;;;;;;;;;;;;;;;;;;5000704;28;19926;-88
2021/08/07 03:35:44;;;;;;;;;;;;;;;;;;4993961;28;19941;-88
2021/08/07 03:38:13;;;;;;;;;;;;;;;;;;4998438;28;19930;-83
2021/08/07 03:40:42;;;;;;;;;;;;;;;;;;4997626;28;19925;-84
2021/08/07 03:43:14;;;;;;;;;;;;;;;;;;4982236;28;19926;-85
2021/08/07 03:45:43;;;;;;;;;;;;;;;;;;4979722;28;19941;-87
2021/08/07 03:48:13;;;;;;;;;;;;;;;;;;4996442;28;20330;-86
2021/08/07 03:50:46;;;;;;;;;;;;;;;;;;5001743;28;19933;-86
2021/08/07 03:53:21;;;;;;;;;;;;;;;;;;4983247;28;19933;-86
2021/08/07 03:55:53;;;;;;;;;;;;;;;;;;5012825;28;19932;-89
2021/08/07 03:58:21;;;;;;;;;;;;;;;;;;4984062;28;19940;-89
2021/08/07 04:01:03;;;;;;;;;;;;;;;;;;4995223;28;19940;-87
2021/08/07 04:03:36;;;;;;;;;;;;;;;;;;4984837;28;19932;-86
2021/08/07 04:06:29;;;;;;;;;;;;;;;;;;5001024;28;19925;-89
2021/08/07 04:09:00;;;;;;;;;;;;;;;;;;4997108;28;20384;-86
2021/08/07 04:11:31;;;;;;;;;;;;;;;;;;4990978;28;19926;-88
2021/08/07 04:14:04;;;;;;;;;;;;;;;;;;4991469;28;19926;-89
2021/08/07 04:16:32;;;;;;;;;;;;;;;;;;5001312;28;20592;-89
2021/08/07 04:19:10;;;;;;;;;;;;;;;;;;4995818;28;19933;-88
2021/08/07 04:21:40;;;;;;;;;;;;;;;;;;4999696;28;19941;-89
2021/08/07 04:24:08;;;;;;;;;;;;;;;;;;5000733;28;20384;-89
2021/08/07 04:26:38;;;;;;;;;;;;;;;;;;4986238;28;19933;-90
2021/08/07 04:29:10;;;;;;;;;;;;;;;;;;4981552;28;19933;-90
2021/08/07 04:31:39;;;;;;;;;;;;;;;;;;4995812;28;19925;-89
2021/08/07 04:34:07;;;;;;;;;;;;;;;;;;4982080;28;19940;-87
2021/08/07 04:36:38;;;;;;;;;;;;;;;;;;5001075;28;20396;-88
2021/08/07 04:39:07;;;;;;;;;;;;;;;;;;4993564;28;20303;-89
2021/08/07 04:41:38;;;;;;;;;;;;;;;;;;5002174;28;20395;-88
2021/08/07 04:44:07;;;;;;;;;;;;;;;;;;4999988;28;19940;-88
2021/08/07 04:46:35;;;;;;;;;;;;;;;;;;5002477;28;20058;-89
2021/08/07 04:49:04;;;;;;;;;;;;;;;;;;4987675;28;19932;-89
2021/08/07 04:51:32;;;;;;;;;;;;;;;;;;4977368;28;19952;-88
2021/08/07 04:54:04;;;;;;;;;;;;;;;;;;4993695;28;22559;-88
2021/08/07 04:56:32;;;;;;;;;;;;;;;;;;4989974;28;19926;-89
2021/08/07 04:59:01;;;;;;;;;;;;;;;;;;5015288;28;19926;-88
2021/08/07 05:01:32;;;;;;;;;;;;;;;;;;4984304;28;20409;-88
2021/08/07 05:04:02;;;;;;;;;;;;;;;;;;4982617;28;20398;-87
2021/08/07 05:06:31;;;;;;;;;;;;;;;;;;4974930;28;19930;-88
2021/08/07 05:08:59;;;;;;;;;;;;;;;;;;4989345;28;19933;-89
2021/08/07 05:11:34;;;;;;;;;;;;;;;;;;4997543;28;20252;-88
2021/08/07 05:14:02;;;;;;;;;;;;;;;;;;5000256;28;20315;-88
2021/08/07 05:16:31;;;;;;;;;;;;;;;;;;4980932;28;19940;-88
2021/08/07 05:18:59;;;;;;;;;;;;;;;;;;5014094;28;19925;-88
2021/08/07 05:21:31;;;;;;;;;;;;;;;;;;4980135;28;19925;-87
2021/08/07 05:23:59;;;;;;;;;;;;;;;;;;4983649;28;19933;-88
2021/08/07 05:26:28;;;;;;;;;;;;;;;;;;4989876;28;19929;-90
2021/08/07 05:28:58;;;;;;;;;;;;;;;;;;4987420;28;19925;-90
2021/08/07 05:31:26;;;;;;;;;;;;;;;;;;5007964;28;19930;-88
2021/08/07 05:33:55;;;;;;;;;;;;;;;;;;4980674;28;19930;-88
2021/08/07 05:36:24;;;;;;;;;;;;;;;;;;4984237;28;19941;-88
2021/08/07 05:38:52;;;;;;;;;;;;;;;;;;5017443;28;19925;-85
2021/08/07 05:41:21;;;;;;;;;;;;;;;;;;5001563;28;20414;-89
2021/08/07 05:43:49;;;;;;;;;;;;;;;;;;4999837;28;20266;-88
2021/08/07 05:46:19;;;;;;;;;;;;;;;;;;4980908;28;19925;-88
2021/08/07 05:48:50;;;;;;;;;;;;;;;;;;5003920;28;19932;-87
2021/08/07 05:51:18;;;;;;;;;;;;;;;;;;4988064;28;19940;-87
2021/08/07 05:53:47;;;;;;;;;;;;;;;;;;4981744;28;21190;-85
2021/08/07 05:56:16;;;;;;;;;;;;;;;;;;5016786;28;19930;-88
2021/08/07 05:58:44;;;;;;;;;;;;;;;;;;4997444;28;19928;-86
2021/08/07 06:01:13;;;;;;;;;;;;;;;;;;4996839;28;19930;-86
2021/08/07 06:03:43;;;;;;;;;;;;;;;;;;4986563;28;19925;-87
2021/08/07 06:06:12;;;;;;;;;;;;;;;;;;4982530;28;20384;-86
2021/08/07 06:08:40;;;;;;;;;;;;;;;;;;5003073;28;19926;-87
2021/08/07 06:11:09;;;;;;;;;;;;;;;;;;5023283;28;19932;-87
2021/08/07 06:13:38;;;;;;;;;;;;;;;;;;4998737;28;19929;-87
2021/08/07 06:16:06;;;;;;;;;;;;;;;;;;4996315;28;19930;-87
2021/08/07 06:18:34;;;;;;;;;;;;;;;;;;5003433;28;19930;-87
2021/08/07 06:21:04;;;;;;;;;;;;;;;;;;5003170;28;19926;-85
2021/08/07 06:23:32;;;;;;;;;;;;;;;;;;4996878;28;20288;-84
2021/08/07 06:26:00;;;;;;;;;;;;;;;;;;4983667;28;19937;-88
2021/08/07 06:28:31;;;;;;;;;;;;;;;;;;4985662;28;19933;-88
2021/08/07 06:30:59;;;;;;;;;;;;;;;;;;4986967;28;19929;-88
2021/08/07 06:33:28;;;;;;;;;;;;;;;;;;5001466;28;20366;-86
2021/08/07 06:35:57;;;;;;;;;;;;;;;;;;4983529;28;20303;-86
2021/08/07 06:38:31;;;;;;;;;;;;;;;;;;5004168;28;19933;-87
2021/08/07 06:41:00;;;;;;;;;;;;;;;;;;5005828;28;19941;-88
2021/08/07 06:43:33;;;;;;;;;;;;;;;;;;5000273;28;19936;-87
2021/08/07 06:46:12;;;;;;;;;;;;;;;;;;4981156;28;20277;-87
2021/08/07 06:48:41;;;;;;;;;;;;;;;;;;4992646;28;20406;-87
2021/08/07 06:51:10;;;;;;;;;;;;;;;;;;5007099;28;20280;-87
2021/08/07 06:53:40;;;;;;;;;;;;;;;;;;4990145;28;19936;-86
2021/08/07 06:56:09;;;;;;;;;;;;;;;;;;4987269;28;19932;-87
2021/08/07 06:58:38;;;;;;;;;;;;;;;;;;5020722;28;19929;-87
2021/08/07 07:01:07;;;;;;;;;;;;;;;;;;5016170;28;19971;-87
2021/08/07 07:03:35;;;;;;;;;;;;;;;;;;5008664;28;19932;-86
2021/08/07 07:06:05;;;;;;;;;;;;;;;;;;4994061;28;19925;-85
2021/08/07 07:08:34;;;;;;;;;;;;;;;;;;4992503;28;19925;-87
2021/08/07 07:11:03;;;;;;;;;;;;;;;;;;4988592;28;19925;-85
2021/08/07 07:13:32;;;;;;;;;;;;;;;;;;5006406;28;19936;-85
2021/08/07 07:16:02;;;;;;;;;;;;;;;;;;5003383;28;19926;-84
2021/08/07 07:18:30;;;;;;;;;;;;;;;;;;4986590;28;19997;-86
2021/08/07 07:20:59;;;;;;;;;;;;;;;;;;5003388;28;19925;-85
2021/08/07 07:23:27;;;;;;;;;;;;;;;;;;4989278;28;19926;-86
2021/08/07 07:25:55;;;;;;;;;;;;;;;;;;5014973;28;19936;-87
2021/08/07 07:28:25;;;;;;;;;;;;;;;;;;4998066;28;19934;-86
2021/08/07 07:30:53;;;;;;;;;;;;;;;;;;4967004;28;19934;-84
2021/08/07 07:33:22;;;;;;;;;;;;;;;;;;4981650;28;19926;-87
2021/08/07 07:35:50;;;;;;;;;;;;;;;;;;4992943;28;19924;-86
2021/08/07 07:38:19;;;;;;;;;;;;;;;;;;4988816;28;20395;-84
2021/08/07 07:40:48;;;;;;;;;;;;;;;;;;5002766;28;19944;-86
2021/08/07 07:43:19;;;;;;;;;;;;;;;;;;4981479;28;19933;-87
2021/08/07 07:45:50;;;;;;;;;;;;;;;;;;4998239;28;19929;-86
2021/08/07 07:48:18;;;;;;;;;;;;;;;;;;4998656;28;19937;-86
2021/08/07 07:50:48;;;;;;;;;;;;;;;;;;4989827;28;19925;-87
2021/08/07 07:53:16;;;;;;;;;;;;;;;;;;4984544;28;19936;-87
2021/08/07 07:55:45;;;;;;;;;;;;;;;;;;4992447;28;19933;-87
2021/08/07 07:58:14;;;;;;;;;;;;;;;;;;4992531;28;20284;-87
2021/08/07 08:00:43;;;;;;;;;;;;;;;;;;4985728;28;19934;-87
2021/08/07 08:03:14;;;;;;;;;;;;;;;;;;4989967;28;19925;-85
2021/08/07 08:05:45;;;;;;;;;;;;;;;;;;5006316;28;19933;-87
2021/08/07 08:08:13;;;;;;;;;;;;;;;;;;5002822;28;19936;-87
2021/08/07 08:10:41;;;;;;;;;;;;;;;;;;4988689;28;19925;-86
2021/08/07 08:13:15;;;;;;;;;;;;;;;;;;4987188;28;19948;-85
2021/08/07 08:15:43;;;;;;;;;;;;;;;;;;5000966;28;19936;-86
2021/08/07 08:18:14;;;;;;;;;;;;;;;;;;4985701;28;19925;-86
2021/08/07 08:20:43;;;;;;;;;;;;;;;;;;5005064;28;19925;-86
2021/08/07 08:23:11;;;;;;;;;;;;;;;;;;4988665;28;20283;-86
2021/08/07 08:25:39;;;;;;;;;;;;;;;;;;5002015;28;19933;-87
2021/08/07 08:28:08;;;;;;;;;;;;;;;;;;4985532;28;20387;-87
2021/08/07 08:30:39;;;;;;;;;;;;;;;;;;4991541;28;19929;-86
2021/08/07 08:33:09;;;;;;;;;;;;;;;;;;4998726;28;19933;-87
2021/08/07 08:35:38;;;;;;;;;;;;;;;;;;5004914;28;19926;-88
2021/08/07 08:38:06;;;;;;;;;;;;;;;;;;5004962;28;19955;-87
2021/08/07 08:40:35;;;;;;;;;;;;;;;;;;4988484;28;19929;-87
2021/08/07 08:43:04;;;;;;;;;;;;;;;;;;4991616;28;19936;-86
2021/08/07 08:45:32;;;;;;;;;;;;;;;;;;4989837;28;19925;-86
2021/08/07 08:48:01;;;;;;;;;;;;;;;;;;5022008;28;19932;-86
2021/08/07 08:50:31;;;;;;;;;;;;;;;;;;4983228;28;19929;-86
2021/08/07 08:53:01;;;;;;;;;;;;;;;;;;5003699;28;19936;-85
2021/08/07 08:55:31;;;;;;;;;;;;;;;;;;5000818;28;19937;-86
2021/08/07 08:58:03;;;;;;;;;;;;;;;;;;4991080;28;19936;-87
2021/08/07 09:00:32;;;;;;;;;;;;;;;;;;5007781;28;19925;-85
2021/08/07 09:03:00;;;;;;;;;;;;;;;;;;5004194;28;19929;-86
2021/08/07 09:05:29;;;;;;;;;;;;;;;;;;4986398;28;20156;-87
2021/08/07 09:07:58;;;;;;;;;;;;;;;;;;5004710;28;19925;-85
2021/08/07 09:10:28;;;;;;;;;;;;;;;;;;5003731;28;19933;-86
2021/08/07 09:13:03;;;;;;;;;;;;;;;;;;4986535;28;19933;-87
2021/08/07 09:15:34;;;;;;;;;;;;;;;;;;4998404;28;19926;-85
2021/08/07 09:18:15;;;;;;;;;;;;;;;;;;4981500;28;19977;-87
2021/08/07 09:20:50;;;;;;;;;;;;;;;;;;5016667;28;19925;-87
2021/08/07 09:23:29;;;;;;;;;;;;;;;;;;4987732;28;19926;-88
2021/08/07 09:26:11;;;;;;;;;;;;;;;;;;4987753;28;19925;-87
2021/08/07 09:28:46;;;;;;;;;;;;;;;;;;4990173;28;19926;-84
2021/08/07 09:31:18;;;;;;;;;;;;;;;;;;5003248;28;19940;-85
2021/08/07 09:33:46;;;;;;;;;;;;;;;;;;4995126;28;19929;-88
2021/08/07 09:36:15;;;;;;;;;;;;;;;;;;5005879;28;19929;-88
2021/08/07 09:38:44;;;;;;;;;;;;;;;;;;4990341;28;19929;-86
2021/08/07 09:41:15;;;;;;;;;;;;;;;;;;4987442;28;20422;-87
2021/08/07 09:43:48;;;;;;;;;;;;;;;;;;5022362;28;19953;-88
2021/08/07 09:46:18;;;;;;;;;;;;;;;;;;4992664;28;20313;-88
2021/08/07 09:48:51;;;;;;;;;;;;;;;;;;4992206;28;19936;-85
2021/08/07 09:51:22;;;;;;;;;;;;;;;;;;5015641;28;20300;-88
2021/08/07 09:54:00;;;;;;;;;;;;;;;;;;4990359;28;19933;-88
2021/08/07 09:56:42;;;;;;;;;;;;;;;;;;5005690;28;19926;-87
2021/08/07 09:59:11;;;;;;;;;;;;;;;;;;4992295;28;19937;-87
2021/08/07 10:01:40;;;;;;;;;;;;;;;;;;5002066;28;19945;-88
2021/08/07 10:04:11;;;;;;;;;;;;;;;;;;4992578;28;19925;-87
2021/08/07 10:06:42;;;;;;;;;;;;;;;;;;5008407;28;19925;-88
2021/08/07 10:09:12;;;;;;;;;;;;;;;;;;5002557;28;19929;-87
2021/08/07 10:11:42;;;;;;;;;;;;;;;;;;4989586;28;19949;-87
2021/08/07 10:14:11;;;;;;;;;;;;;;;;;;5018855;28;19929;-86
2021/08/07 10:16:43;;;;;;;;;;;;;;;;;;4986917;28;19932;-87
2021/08/07 10:19:12;;;;;;;;;;;;;;;;;;4990549;28;19926;-86
2021/08/07 10:21:41;;;;;;;;;;;;;;;;;;5001491;28;19933;-88
2021/08/07 10:24:10;;;;;;;;;;;;;;;;;;4999686;28;19932;-87
2021/08/07 10:26:38;;;;;;;;;;;;;;;;;;5021537;28;19934;-88
2021/08/07 10:29:08;;;;;;;;;;;;;;;;;;4989793;28;19926;-88
2021/08/07 10:31:37;;;;;;;;;;;;;;;;;;4995448;28;19944;-85
2021/08/07 10:34:08;;;;;;;;;;;;;;;;;;5004492;28;19933;-87
2021/08/07 10:36:38;;;;;;;;;;;;;;;;;;4989560;28;19967;-88
2021/08/07 10:39:08;;;;;;;;;;;;;;;;;;4992727;28;20411;-87
2021/08/07 10:41:36;;;;;;;;;;;;;;;;;;4988361;28;19933;-87
2021/08/07 10:44:05;;;;;;;;;;;;;;;;;;4987352;28;20291;-86
2021/08/07 10:46:36;;;;;;;;;;;;;;;;;;5003586;28;20339;-85
2021/08/07 10:49:07;;;;;;;;;;;;;;;;;;4990315;28;19926;-86
2021/08/07 10:51:37;;;;;;;;;;;;;;;;;;4984810;28;20296;-87
2021/08/07 10:54:06;;;;;;;;;;;;;;;;;;5021423;28;19929;-86
2021/08/07 10:56:35;;;;;;;;;;;;;;;;;;5008547;28;19925;-86
2021/08/07 10:59:19;;;;;;;;;;;;;;;;;;4990394;28;19925;-88
2021/08/07 11:01:48;;;;;;;;;;;;;;;;;;5004158;28;19948;-85
2021/08/07 11:04:18;;;;;;;;;;;;;;;;;;4992137;28;20228;-86
2021/08/07 11:06:51;;;;;;;;;;;;;;;;;;4992687;28;20418;-84
2021/08/07 11:09:20;;;;;;;;;;;;;;;;;;4990432;28;19929;-85
2021/08/07 11:11:49;;;;;;;;;;;;;;;;;;5004889;28;19925;-85
2021/08/07 11:14:35;;;;;;;;;;;;;;;;;;5002092;28;19979;-86
2021/08/07 11:17:34;;;;;;;;;;;;;;;;;;4983442;28;19933;-89
2021/08/07 11:20:05;;;;;;;;;;;;;;;;;;4945482;28;19930;-87
2021/08/07 11:23:07;;;;;;;;;;;;;;;;;;4989863;28;19934;-86
2021/08/07 11:25:54;;;;;;;;;;;;;;;;;;5004875;28;19937;-87
2021/08/07 11:28:23;;;;;;;;;;;;;;;;;;5001772;28;19926;-87
2021/08/07 11:31:06;;;;;;;;;;;;;;;;;;4990974;28;19929;-86
2021/08/07 11:33:34;;;;;;;;;;;;;;;;;;5019203;28;19925;-86
2021/08/07 11:36:05;;;;;;;;;;;;;;;;;;5003987;28;20380;-85
2021/08/07 11:38:33;;;;;;;;;;;;;;;;;;5003637;28;19933;-86
2021/08/07 11:41:02;;;;;;;;;;;;;;;;;;5005311;28;20419;-87
2021/08/07 11:43:32;;;;;;;;;;;;;;;;;;4992315;28;19936;-87
2021/08/07 11:46:04;;;;;;;;;;;;;;;;;;5003746;28;19925;-87
2021/08/07 11:48:33;;;;;;;;;;;;;;;;;;4991007;28;19936;-86
2021/08/07 11:51:02;;;;;;;;;;;;;;;;;;4989562;28;19930;-87
2021/08/07 11:53:33;;;;;;;;;;;;;;;;;;5006363;28;19952;-85
2021/08/07 11:56:03;;;;;;;;;;;;;;;;;;4996989;28;19926;-87
2021/08/07 11:58:32;;;;;;;;;;;;;;;;;;4986045;28;19932;-85
2021/08/07 12:01:00;;;;;;;;;;;;;;;;;;5014133;28;19929;-88
2021/08/07 12:03:38;;;;;;;;;;;;;;;;;;5006391;28;19925;-87
2021/08/07 12:06:06;;;;;;;;;;;;;;;;;;5001935;28;19933;-84
2021/08/07 12:08:36;;;;;;;;;;;;;;;;;;5005231;28;19936;-87
2021/08/07 12:11:05;;;;;;;;;;;;;;;;;;5018271;28;20148;-87
2021/08/07 12:13:34;;;;;;;;;;;;;;;;;;4990367;28;19926;-87
2021/08/07 12:16:03;;;;;;;;;;;;;;;;;;4985734;28;20334;-86
2021/08/07 12:18:42;;;;;;;;;;;;;;;;;;5001383;28;19930;-87
2021/08/07 12:21:10;;;;;;;;;;;;;;;;;;5018312;28;19933;-87
2021/08/07 12:23:40;;;;;;;;;;;;;;;;;;4981493;28;20017;-86
2021/08/07 12:26:12;;;;;;;;;;;;;;;;;;4985557;28;19940;-86
2021/08/07 12:28:40;;;;;;;;;;;;;;;;;;4999055;28;19933;-87
2021/08/07 12:31:08;;;;;;;;;;;;;;;;;;5002238;28;19936;-87
2021/08/07 12:33:40;;;;;;;;;;;;;;;;;;5018548;28;19925;-87
2021/08/07 12:36:11;;;;;;;;;;;;;;;;;;4997039;28;20379;-87
2021/08/07 12:38:42;;;;;;;;;;;;;;;;;;4984915;28;19932;-86
2021/08/07 12:41:12;;;;;;;;;;;;;;;;;;4999453;28;19932;-85
2021/08/07 12:43:40;;;;;;;;;;;;;;;;;;4995843;28;20111;-86
2021/08/07 12:46:09;;;;;;;;;;;;;;;;;;5005614;28;19941;-85
2021/08/07 12:48:50;;;;;;;;;;;;;;;;;;5006006;28;19979;-86
2021/08/07 12:51:26;;;;;;;;;;;;;;;;;;5003541;28;19926;-85
2021/08/07 12:53:58;;;;;;;;;;;;;;;;;;4999820;28;20287;-84
2021/08/07 12:56:29;;;;;;;;;;;;;;;;;;5017377;28;19925;-86
2021/08/07 12:59:04;;;;;;;;;;;;;;;;;;4982110;28;19933;-86
2021/08/07 13:01:39;;;;;;;;;;;;;;;;;;4966564;28;19926;-87
2021/08/07 14:02:26;;;;;;;;;;;;;;;;;;4994889;23;19930;-93
2021/08/07 14:04:55;;;;;;;;;;;;;;;;;;4945109;28;19931;-93
2021/08/07 14:07:24;;;;;;;;;;;;;;;;;;4953673;28;20440;-91
2021/08/07 14:09:52;;;;;;;;;;;;;;;;;;4968054;28;19930;-92
2021/08/07 14:12:20;;;;;;;;;;;;;;;;;;4953082;28;19927;-91
2021/08/07 14:14:48;;;;;;;;;;;;;;;;;;4956284;28;19926;-93
2021/08/07 14:17:16;;;;;;;;;;;;;;;;;;4972470;28;20317;-92
2021/08/07 14:19:46;;;;;;;;;;;;;;;;;;4950708;28;19926;-91
2021/08/07 14:22:14;;;;;;;;;;;;;;;;;;4962341;28;19926;-95
2021/08/07 14:24:43;;;;;;;;;;;;;;;;;;4945453;29;19926;-94
2021/08/07 14:27:11;;;;;;;;;;;;;;;;;;4943904;29;19927;-94
2021/08/07 14:29:41;;;;;;;;;;;;;;;;;;4971431;28;19933;-93
2021/08/07 14:32:10;;;;;;;;;;;;;;;;;;4951359;28;19946;-93
2021/08/07 14:34:38;;;;;;;;;;;;;;;;;;4958760;28;19931;-91
2021/08/07 14:37:08;;;;;;;;;;;;;;;;;;4937079;28;19926;-92
2021/08/07 14:39:36;;;;;;;;;;;;;;;;;;4941296;28;19933;-93
2021/08/07 14:42:04;;;;;;;;;;;;;;;;;;4944419;28;20323;-93
2021/08/07 14:44:32;;;;;;;;;;;;;;;;;;4945682;28;20424;-92
2021/08/07 14:47:01;;;;;;;;;;;;;;;;;;4966163;28;19937;-92
2021/08/07 14:49:29;;;;;;;;;;;;;;;;;;4939423;29;19927;-92
2021/08/07 14:51:58;;;;;;;;;;;;;;;;;;4947861;28;19941;-93
2021/08/07 14:54:30;;;;;;;;;;;;;;;;;;4962660;28;19933;-93
2021/08/07 14:56:58;;;;;;;;;;;;;;;;;;4943994;28;19926;-93
2021/08/07 14:59:26;;;;;;;;;;;;;;;;;;4941507;29;19926;-94
2021/08/07 15:01:55;;;;;;;;;;;;;;;;;;4940244;28;19927;-93
2021/08/07 15:04:23;;;;;;;;;;;;;;;;;;4961741;28;19934;-93
2021/08/07 15:06:52;;;;;;;;;;;;;;;;;;4953579;28;19930;-92
2021/08/07 15:09:20;;;;;;;;;;;;;;;;;;4943079;28;20306;-92
2021/08/07 15:11:50;;;;;;;;;;;;;;;;;;4939945;28;19949;-93
2021/08/07 15:14:18;;;;;;;;;;;;;;;;;;4954065;28;19934;-94
2021/08/07 15:16:46;;;;;;;;;;;;;;;;;;4933408;28;19957;-93
2021/08/07 15:19:15;;;;;;;;;;;;;;;;;;4951161;28;20014;-93
2021/08/07 15:21:43;;;;;;;;;;;;;;;;;;4957734;28;19930;-94
2021/08/07 15:24:11;;;;;;;;;;;;;;;;;;4971778;28;20035;-92
2021/08/07 15:26:40;;;;;;;;;;;;;;;;;;4994963;23;20429;-84
2021/08/07 15:29:13;;;;;;;;;;;;;;;;;;5011388;28;19925;-85
2021/08/07 15:31:45;;;;;;;;;;;;;;;;;;5006739;28;20303;-85
2021/08/07 15:34:15;;;;;;;;;;;;;;;;;;4993117;28;20311;-85
2021/08/07 15:36:53;;;;;;;;;;;;;;;;;;5007748;28;20391;-85
2021/08/07 15:39:22;;;;;;;;;;;;;;;;;;5014165;28;19936;-85
2021/08/07 15:41:57;;;;;;;;;;;;;;;;;;4994038;28;20406;-85
2021/08/07 15:44:28;;;;;;;;;;;;;;;;;;5004073;28;19926;-85
2021/08/07 15:46:57;;;;;;;;;;;;;;;;;;4994714;28;19929;-85
2021/08/07 15:49:26;;;;;;;;;;;;;;;;;;4994216;28;20387;-85
2021/08/07 15:51:56;;;;;;;;;;;;;;;;;;4985837;28;20111;-84
2021/08/07 15:54:24;;;;;;;;;;;;;;;;;;5001663;28;20307;-85
2021/08/07 15:56:53;;;;;;;;;;;;;;;;;;5015384;28;19936;-85
2021/08/07 15:59:22;;;;;;;;;;;;;;;;;;5002251;28;20643;-84
2021/08/07 16:01:52;;;;;;;;;;;;;;;;;;4986459;28;19925;-82
2021/08/07 16:04:20;;;;;;;;;;;;;;;;;;5008990;28;19947;-86
2021/08/07 16:06:49;;;;;;;;;;;;;;;;;;5002448;28;19941;-85
2021/08/07 16:09:18;;;;;;;;;;;;;;;;;;4996254;28;19933;-86
2021/08/07 16:11:46;;;;;;;;;;;;;;;;;;4992444;28;20391;-86
2021/08/07 16:14:14;;;;;;;;;;;;;;;;;;5019179;28;19932;-85
2021/08/07 16:16:43;;;;;;;;;;;;;;;;;;5003503;28;20399;-85
2021/08/07 16:19:12;;;;;;;;;;;;;;;;;;5009416;28;19926;-84
2021/08/07 16:21:41;;;;;;;;;;;;;;;;;;5015747;28;19949;-82
2021/08/07 16:24:10;;;;;;;;;;;;;;;;;;4982489;28;19925;-84
2021/08/07 16:26:38;;;;;;;;;;;;;;;;;;4990787;28;20405;-84
2021/08/07 16:29:06;;;;;;;;;;;;;;;;;;4998563;28;20410;-85
2021/08/07 16:31:34;;;;;;;;;;;;;;;;;;4973666;28;19944;-85
2021/08/07 16:34:03;;;;;;;;;;;;;;;;;;4988525;28;19925;-84
2021/08/07 16:36:32;;;;;;;;;;;;;;;;;;4989247;28;19933;-84
2021/08/07 16:39:00;;;;;;;;;;;;;;;;;;4995540;28;19929;-85
2021/08/07 16:41:28;;;;;;;;;;;;;;;;;;5013309;28;19924;-85
2021/08/07 16:43:57;;;;;;;;;;;;;;;;;;4996514;28;20391;-88
2021/08/07 16:46:26;;;;;;;;;;;;;;;;;;4992269;28;20483;-88
2021/08/07 16:48:55;;;;;;;;;;;;;;;;;;5016462;28;20257;-87
2021/08/07 16:51:23;;;;;;;;;;;;;;;;;;4993094;28;19925;-83
2021/08/07 16:53:52;;;;;;;;;;;;;;;;;;4998890;28;19929;-84
2021/08/07 16:56:21;;;;;;;;;;;;;;;;;;5004757;28;19994;-84
2021/08/07 16:58:49;;;;;;;;;;;;;;;;;;5002642;28;19930;-84
2021/08/07 17:01:18;;;;;;;;;;;;;;;;;;5011244;28;19933;-89
2021/08/07 17:03:46;;;;;;;;;;;;;;;;;;5005739;28;19925;-86
2021/08/07 17:06:15;;;;;;;;;;;;;;;;;;4995568;28;20490;-82
2021/08/07 17:08:45;;;;;;;;;;;;;;;;;;5011434;28;19937;-83
2021/08/07 17:11:17;;;;;;;;;;;;;;;;;;5013952;28;19936;-84
2021/08/07 17:13:45;;;;;;;;;;;;;;;;;;5011046;28;19928;-81
2021/08/07 17:16:13;;;;;;;;;;;;;;;;;;5011625;28;19932;-82
2021/08/07 17:18:42;;;;;;;;;;;;;;;;;;5011356;28;19925;-85
2021/08/07 17:21:10;;;;;;;;;;;;;;;;;;5010567;28;19940;-84
2021/08/07 17:23:39;;;;;;;;;;;;;;;;;;5027791;28;19932;-86
2021/08/07 17:26:07;;;;;;;;;;;;;;;;;;4995818;28;19940;-84
2021/08/07 17:28:40;;;;;;;;;;;;;;;;;;5017653;28;19929;-88
2021/08/07 17:31:08;;;;;;;;;;;;;;;;;;4990270;28;19926;-85
2021/08/07 17:33:36;;;;;;;;;;;;;;;;;;5029348;28;20391;-84
2021/08/07 17:36:05;;;;;;;;;;;;;;;;;;4999512;28;20299;-82
2021/08/07 17:38:33;;;;;;;;;;;;;;;;;;5023900;28;20392;-86
2021/08/07 17:41:02;;;;;;;;;;;;;;;;;;4999105;28;19925;-84
2021/08/07 17:43:48;;;;;;;;;;;;;;;;;;5026957;28;20302;-84
2021/08/07 17:46:16;;;;;;;;;;;;;;;;;;5007321;28;19926;-83
2021/08/07 17:48:44;;;;;;;;;;;;;;;;;;5018865;28;19932;-83
2021/08/07 17:51:13;;;;;;;;;;;;;;;;;;5001928;28;19925;-82
2021/08/07 17:53:41;;;;;;;;;;;;;;;;;;4992826;28;19925;-86
2021/08/07 17:56:09;;;;;;;;;;;;;;;;;;5010904;28;19926;-82
2021/08/07 17:58:37;;;;;;;;;;;;;;;;;;5003103;28;19936;-84
2021/08/07 18:01:07;;;;;;;;;;;;;;;;;;5013246;28;19936;-83
2021/08/07 18:03:37;;;;;;;;;;;;;;;;;;5003343;28;19940;-86
2021/08/07 18:06:06;;;;;;;;;;;;;;;;;;4994171;28;20483;-87